Time;durP1;ratioP1;P1;durP2;ratioP2;P2;SDS_P1;SDS_P2;PMS_P1;PMS_P2;Temp;Humidity;BMP_temperature;BMP_pressure;BME280_temperature;BME280_humidity;BME280_pressure;Samples;Min_cycle;Max_cycle;Signal;HPM_P1;HPM_P2
2023/04/20 00:01:57;;;;;;;6.55;2.90;;;;;;;21.45;57.40;98066.19;4834349;29;20137;-64
2023/04/20 00:04:27;;;;;;;9.38;2.70;;;;;;;21.48;57.46;98077.19;4835141;29;20066;-64
2023/04/20 00:06:57;;;;;;;8.98;2.90;;;;;;;21.55;57.70;98076.91;4831969;29;20054;-64
2023/04/20 00:09:27;;;;;;;7.72;2.90;;;;;;;21.54;57.85;98079.88;4818293;29;20593;-61
2023/04/20 00:11:56;;;;;;;8.32;2.97;;;;;;;21.55;57.84;98068.00;4819432;29;20172;-61
2023/04/20 00:14:26;;;;;;;5.25;2.60;;;;;;;21.54;57.72;98061.00;4832101;29;20128;-66
2023/04/20 00:16:55;;;;;;;12.95;3.80;;;;;;;21.43;57.83;98052.97;4837124;29;20685;-64
2023/04/20 00:19:27;;;;;;;10.77;3.00;;;;;;;21.38;58.07;98039.53;4833886;29;20156;-62
2023/04/20 00:21:56;;;;;;;10.45;3.10;;;;;;;21.34;57.76;98043.06;4819718;29;20057;-62
2023/04/20 00:24:26;;;;;;;7.47;3.03;;;;;;;21.31;58.24;98047.13;4834931;29;20157;-61
2023/04/20 00:26:55;;;;;;;6.88;3.10;;;;;;;21.32;58.53;98054.13;4834787;29;20054;-64
2023/04/20 00:29:24;;;;;;;8.60;3.88;;;;;;;21.32;59.06;98051.44;4821991;29;20770;-61
2023/04/20 00:31:54;;;;;;;8.73;3.60;;;;;;;21.29;58.29;98061.94;4841036;29;20054;-62
2023/04/20 00:34:23;;;;;;;8.63;4.00;;;;;;;21.31;58.70;98075.94;4829318;29;20129;-62
2023/04/20 00:36:56;;;;;;;7.53;3.42;;;;;;;21.33;58.66;98074.56;4826910;29;20089;-63
2023/04/20 00:39:25;;;;;;;10.40;4.13;;;;;;;21.38;58.13;98084.50;4814158;29;20146;-62
2023/04/20 00:42:06;;;;;;;17.45;4.03;;;;;;;21.45;58.38;98072.38;4817325;29;20377;-61
2023/04/20 00:44:36;;;;;;;9.00;3.45;;;;;;;21.51;58.27;98062.34;4805148;29;20476;-61
2023/04/20 00:47:05;;;;;;;14.52;4.47;;;;;;;21.58;58.16;98059.38;4798952;29;20061;-62
2023/04/20 00:49:34;;;;;;;11.95;4.13;;;;;;;21.60;58.02;98046.44;4809311;29;20077;-61
2023/04/20 00:52:05;;;;;;;12.07;3.78;;;;;;;21.61;57.37;98037.22;4830373;29;20130;-62
2023/04/20 00:54:35;;;;;;;14.73;3.90;;;;;;;21.64;58.32;98010.53;4818076;29;20454;-62
2023/04/20 00:57:05;;;;;;;16.05;5.60;;;;;;;21.69;57.93;97964.66;4802515;29;20050;-59
2023/04/20 00:59:35;;;;;;;12.27;4.22;;;;;;;21.73;57.55;97963.00;4817572;29;20057;-60
2023/04/20 01:02:04;;;;;;;14.57;4.32;;;;;;;21.73;58.44;98002.66;4835322;29;20138;-61
2023/04/20 01:04:38;;;;;;;11.90;3.88;;;;;;;21.68;59.60;98027.78;4822554;29;20505;-61
2023/04/20 01:07:08;;;;;;;7.35;3.40;;;;;;;21.67;60.64;98026.16;4833006;29;20057;-61
2023/04/20 01:09:38;;;;;;;8.20;3.53;;;;;;;21.61;62.05;97994.13;4835007;29;20094;-61
2023/04/20 01:12:10;;;;;;;9.88;3.38;;;;;;;21.59;61.81;97948.59;4833869;29;20503;-61
2023/04/20 01:14:40;;;;;;;7.93;3.42;;;;;;;21.58;61.66;97913.84;4819878;29;20077;-62
2023/04/20 01:17:12;;;;;;;12.65;3.30;;;;;;;21.59;61.27;97910.88;4819239;29;20057;-62
2023/04/20 01:19:45;;;;;;;9.20;3.63;;;;;;;21.64;60.37;97918.88;4821445;29;20053;-61
2023/04/20 01:22:21;;;;;;;10.52;4.22;;;;;;;21.67;60.69;97921.03;4818902;29;20049;-61
2023/04/20 01:24:55;;;;;;;11.45;4.57;;;;;;;21.70;60.29;97906.19;4817916;29;20056;-66
2023/04/20 01:27:26;;;;;;;12.73;5.55;;;;;;;21.71;60.68;97900.53;4818826;29;20045;-62
2023/04/20 01:29:56;;;;;;;12.38;5.95;;;;;;;21.75;61.02;97903.44;4820622;29;20120;-63
2023/04/20 01:32:25;;;;;;;16.70;7.40;;;;;;;21.77;60.50;97925.53;4817929;29;20065;-62
2023/04/20 01:34:57;;;;;;;15.73;7.38;;;;;;;21.77;60.53;97934.44;4817736;29;20060;-65
2023/04/20 01:37:58;;;;;;;17.52;8.57;;;;;;;21.78;60.92;97941.41;4827510;29;20105;-61
2023/04/20 01:41:03;;;;;;;19.45;9.13;;;;;;;21.79;60.22;97943.03;4830053;29;20137;-62
2023/04/20 01:43:34;;;;;;;18.33;9.48;;;;;;;21.78;60.63;97930.63;4817519;29;20134;-64
2023/04/20 01:46:05;;;;;;;20.58;9.55;;;;;;;21.81;60.13;97923.88;4816833;29;20088;-63
2023/04/20 01:48:34;;;;;;;18.00;9.75;;;;;;;21.84;60.48;97923.31;4835474;29;20145;-64
2023/04/20 01:51:04;;;;;;;18.08;9.88;;;;;;;21.80;60.21;97933.84;4817796;29;20053;-62
2023/04/20 01:53:34;;;;;;;17.88;9.65;;;;;;;21.86;60.08;97942.72;4818862;29;20057;-63
2023/04/20 01:56:05;;;;;;;20.33;9.48;;;;;;;21.89;59.65;97934.06;4818891;29;20118;-61
2023/04/20 01:58:35;;;;;;;17.05;8.65;;;;;;;22.11;58.68;97929.00;4833127;29;20062;-59
2023/04/20 02:01:36;;;;;;;13.90;7.65;;;;;;;22.32;58.25;97930.38;4835249;29;20133;-61
2023/04/20 02:04:06;;;;;;;12.40;5.53;;;;;;;22.50;57.00;97938.81;4818411;29;20049;-60
2023/04/20 02:06:35;;;;;;;13.77;5.50;;;;;;;22.61;57.05;97940.31;4833784;29;20054;-61
2023/04/20 02:09:08;;;;;;;10.10;4.75;;;;;;;22.55;56.90;97944.16;4833140;29;20137;-60
2023/04/20 02:11:37;;;;;;;7.88;4.10;;;;;;;22.49;56.59;97946.13;4833581;29;20058;-61
2023/04/20 02:14:07;;;;;;;6.40;3.65;;;;;;;22.43;56.82;97943.78;4818350;29;20061;-60
2023/04/20 02:16:36;;;;;;;10.20;3.70;;;;;;;22.40;56.32;97954.03;4812634;29;20070;-61
2023/04/20 02:19:05;;;;;;;7.63;3.65;;;;;;;22.45;56.25;97960.47;4800987;29;20054;-59
2023/04/20 02:21:35;;;;;;;9.65;3.70;;;;;;;23.24;54.28;97963.25;4835103;29;20490;-62
2023/04/20 02:24:05;;;;;;;13.10;4.65;;;;;;;24.02;52.24;97964.50;4819544;29;20058;-61
2023/04/20 02:26:34;;;;;;;13.38;5.18;;;;;;;24.39;50.61;97967.06;4800527;29;20053;-62
2023/04/20 02:29:03;;;;;;;7.75;4.65;;;;;;;24.64;51.13;97982.03;4816718;29;20054;-61
2023/04/20 02:31:34;;;;;;;10.82;5.28;;;;;;;24.75;49.92;98007.00;4816732;29;20382;-62
2023/04/20 02:35:03;;;;;;;12.05;5.35;;;;;;;25.08;48.72;98013.13;4829074;29;20641;-61
2023/04/20 02:37:32;;;;;;;9.40;3.97;;;;;;;25.60;48.33;98009.03;4833642;29;20058;-61
2023/04/20 02:40:01;;;;;;;7.03;3.58;;;;;;;26.05;47.61;97999.78;4817568;29;20054;-60
2023/04/20 02:42:31;;;;;;;6.40;3.50;;;;;;;26.28;46.23;98017.69;4833873;29;20064;-60
2023/04/20 02:45:04;;;;;;;9.48;3.80;;;;;;;26.09;47.19;98018.97;4833184;29;20054;-61
2023/04/20 02:47:33;;;;;;;7.03;3.63;;;;;;;25.79;47.63;98023.22;4819053;29;20046;-61
2023/04/20 02:50:03;;;;;;;8.20;3.60;;;;;;;25.71;47.40;98013.13;4807419;29;20066;-61
2023/04/20 02:52:42;;;;;;;9.65;3.47;;;;;;;25.48;48.07;98012.25;4812290;29;20058;-61
2023/04/20 02:55:11;;;;;;;6.57;3.45;;;;;;;25.31;48.43;98015.63;4815568;29;20050;-60
2023/04/20 02:58:12;;;;;;;6.13;3.28;;;;;;;25.40;47.52;98023.81;4816322;29;20065;-62
2023/04/20 03:01:06;;;;;;;7.47;3.47;;;;;;;25.23;48.17;98029.06;4789729;29;20462;-60
2023/04/20 03:03:37;;;;;;;7.40;3.50;;;;;;;24.96;49.62;98036.09;4798848;29;20122;-61
2023/04/20 03:06:39;;;;;;;7.53;3.35;;;;;;;24.63;50.38;98040.00;4816164;29;20138;-61
2023/04/20 03:09:14;;;;;;;9.95;3.28;;;;;;;24.46;51.19;98042.50;4799166;29;20054;-62
2023/04/20 03:12:01;;;;;;;8.00;3.63;;;;;;;24.44;51.72;98047.38;4797425;29;20063;-63
2023/04/20 03:14:48;;;;;;;7.55;3.58;;;;;;;24.51;51.85;98050.53;4814150;29;20098;-62
2023/04/20 03:17:22;;;;;;;9.20;3.92;;;;;;;24.44;50.98;98048.19;4813828;29;20100;-61
2023/04/20 03:19:52;;;;;;;7.70;3.58;;;;;;;24.60;51.32;98049.53;4814265;29;20887;-61
2023/04/20 03:22:47;;;;;;;7.63;3.58;;;;;;;24.74;51.49;98056.88;4817725;29;20047;-63
2023/04/20 03:25:20;;;;;;;8.35;2.90;;;;;;;24.71;49.93;98055.53;4833307;29;20046;-66
2023/04/20 03:28:20;;;;;;;6.57;3.30;;;;;;;24.74;51.38;98054.16;4812034;29;20077;-62
2023/04/20 03:30:50;;;;;;;7.63;3.17;;;;;;;24.84;51.68;98052.03;4816459;29;20065;-62
2023/04/20 03:33:20;;;;;;;5.03;2.80;;;;;;;24.98;51.99;98061.00;4817687;29;20137;-62
2023/04/20 03:35:49;;;;;;;8.13;3.25;;;;;;;25.09;52.12;98056.19;4818402;29;20051;-61
2023/04/20 03:38:20;;;;;;;7.20;2.95;;;;;;;25.12;52.02;98061.00;4811453;29;20054;-62
2023/04/20 03:40:49;;;;;;;10.07;3.03;;;;;;;25.18;52.04;98065.19;4817262;29;20064;-62
2023/04/20 03:43:18;;;;;;;8.93;3.38;;;;;;;25.18;52.37;98065.19;4816779;29;20062;-62
2023/04/20 03:45:48;;;;;;;8.95;3.72;;;;;;;25.11;50.34;98069.44;4803751;29;20089;-63
2023/04/20 03:48:19;;;;;;;11.60;4.22;;;;;;;25.12;51.15;98066.44;4769760;29;20063;-58
2023/04/20 03:50:48;;;;;;;25.88;4.40;;;;;;;25.20;52.84;98073.84;4810450;29;20062;-60
2023/04/20 03:53:17;;;;;;;7.47;3.17;;;;;;;25.23;53.07;98075.94;4817198;29;20229;-58
2023/04/20 03:55:47;;;;;;;9.80;3.35;;;;;;;25.16;51.30;98080.16;4808775;29;20060;-59
2023/04/20 03:58:20;;;;;;;9.13;3.00;;;;;;;25.29;52.17;98074.75;4799676;29;20436;-61
2023/04/20 04:01:12;;;;;;;8.02;3.35;;;;;;;25.43;52.45;98080.94;4800317;29;20055;-60
2023/04/20 04:04:12;;;;;;;9.55;3.33;;;;;;;25.55;53.20;98080.44;4782761;29;20066;-61
2023/04/20 04:06:42;;;;;;;10.65;4.43;;;;;;;25.61;52.67;98090.09;4807711;29;20046;-60
2023/04/20 04:09:11;;;;;;;6.47;3.58;;;;;;;25.66;50.88;98086.47;4803772;29;20050;-59
2023/04/20 04:12:39;;;;;;;10.32;3.92;;;;;;;25.77;52.46;98083.22;4809190;29;20119;-60
2023/04/20 04:15:09;;;;;;;10.63;4.05;;;;;;;25.90;51.95;98082.34;4811238;29;20058;-59
2023/04/20 04:17:48;;;;;;;10.90;4.05;;;;;;;26.13;49.79;98088.59;4815772;29;20114;-61
2023/04/20 04:20:18;;;;;;;10.40;3.80;;;;;;;26.43;51.88;98088.97;4815743;29;20382;-59
2023/04/20 04:22:50;;;;;;;8.65;4.32;;;;;;;26.56;49.36;98093.53;4815025;29;20153;-67
2023/04/20 04:29:03;;;;;;;11.02;3.90;;;;;;;27.14;50.61;98087.91;4805487;29;20061;-64
2023/04/20 04:31:34;;;;;;;9.20;3.72;;;;;;;27.20;49.36;98089.38;4829988;29;20065;-65
2023/04/20 04:34:11;;;;;;;6.55;3.70;;;;;;;27.58;50.44;98095.09;4828472;29;20058;-66
2023/04/20 04:36:45;;;;;;;14.27;3.67;;;;;;;27.61;49.08;98106.16;4832235;29;20134;-63
2023/04/20 04:39:46;;;;;;;48.15;4.93;;;;;;;27.90;48.27;98093.84;4809432;29;20152;-60
2023/04/20 04:42:23;;;;;;;16.73;3.83;;;;;;;27.84;48.26;98095.91;4812109;29;20065;-58
2023/04/20 04:44:53;;;;;;;5.32;3.20;;;;;;;27.97;47.92;98102.34;4810501;29;20081;-57
2023/04/20 04:47:31;;;;;;;9.32;3.35;;;;;;;28.03;47.37;98090.16;4814176;29;20081;-55
2023/04/20 04:50:05;;;;;;;16.50;3.00;;;;;;;28.13;48.14;98098.03;4808399;29;20834;-61
2023/04/20 04:52:42;;;;;;;6.68;3.28;;;;;;;28.63;45.06;98089.31;4805347;29;20710;-63
2023/04/20 04:55:12;;;;;;;6.68;2.80;;;;;;;28.93;42.45;98085.53;4809654;29;20054;-61
2023/04/20 04:57:43;;;;;;;8.90;3.10;;;;;;;28.82;44.08;98087.81;4809664;29;20097;-62
2023/04/20 05:00:14;;;;;;;8.13;2.75;;;;;;;29.32;43.45;98090.66;4808666;29;20043;-61
2023/04/20 05:02:44;;;;;;;4.80;2.70;;;;;;;29.56;42.62;98078.34;4808468;29;20369;-61
2023/04/20 05:05:14;;;;;;;6.35;2.85;;;;;;;29.39;42.09;98084.69;4811439;29;20046;-60
2023/04/20 05:07:44;;;;;;;6.68;2.67;;;;;;;29.26;42.34;98091.94;4796432;29;20119;-59
2023/04/20 05:10:13;;;;;;;5.93;2.83;;;;;;;29.18;41.64;98090.06;4794393;29;20065;-59
2023/04/20 05:12:43;;;;;;;9.48;2.70;;;;;;;29.74;43.69;98096.19;4796041;29;20064;-60
2023/04/20 05:16:10;;;;;;;9.38;2.88;;;;;;;30.24;42.10;98091.44;4806451;29;20479;-57
2023/04/20 05:18:40;;;;;;;4.60;2.00;;;;;;;30.53;41.83;98082.38;4793842;29;20058;-57
2023/04/20 05:21:10;;;;;;;4.25;2.45;;;;;;;30.26;38.89;98089.19;4796667;29;20053;-55
2023/04/20 05:23:40;;;;;;;5.70;2.38;;;;;;;30.43;41.62;98077.28;4808708;29;20054;-53
2023/04/20 05:26:10;;;;;;;8.77;2.45;;;;;;;30.57;41.84;98090.69;4807806;29;20142;-53
2023/04/20 05:28:39;;;;;;;7.38;2.47;;;;;;;29.96;41.92;98087.72;4797479;29;20133;-52
2023/04/20 05:31:35;;;;;;;4.53;2.13;;;;;;;30.34;41.46;98085.56;4802554;29;20046;-52
2023/04/20 05:34:37;;;;;;;10.68;2.72;;;;;;;30.66;40.20;98085.94;4807827;29;20065;-60
2023/04/20 05:37:40;;;;;;;6.97;2.47;;;;;;;30.55;42.42;98084.75;4805299;29;20054;-60
2023/04/20 05:40:10;;;;;;;7.93;3.05;;;;;;;30.28;39.17;98083.38;4806721;29;20133;-60
2023/04/20 05:42:40;;;;;;;8.63;2.53;;;;;;;30.36;42.11;98085.22;4822435;29;20067;-60
2023/04/20 05:45:10;;;;;;;6.55;3.10;;;;;;;30.84;41.75;98081.84;4806319;29;20133;-61
2023/04/20 05:47:40;;;;;;;10.07;3.00;;;;;;;30.29;41.71;98085.78;4807613;29;20053;-56
2023/04/20 05:50:09;;;;;;;13.77;2.58;;;;;;;30.43;42.49;98082.75;4812891;29;20077;-54
2023/04/20 05:52:39;;;;;;;8.85;3.10;;;;;;;29.98;43.54;98090.88;4815683;29;20070;-55
2023/04/20 05:55:08;;;;;;;12.07;3.47;;;;;;;30.12;43.83;98085.16;4820757;29;20063;-57
2023/04/20 05:57:41;;;;;;;11.73;3.70;;;;;;;30.02;44.27;98085.53;4819822;29;20066;-55
2023/04/20 06:00:15;;;;;;;9.10;3.23;;;;;;;30.49;43.02;98073.25;4828286;29;20053;-55
2023/04/20 06:02:45;;;;;;;9.77;3.40;;;;;;;30.25;41.65;98086.78;4827724;29;20297;-54
2023/04/20 06:05:15;;;;;;;9.82;3.40;;;;;;;30.56;42.12;98078.16;4826137;29;20081;-51
2023/04/20 06:07:44;;;;;;;5.72;3.10;;;;;;;30.50;40.29;98077.56;4821310;29;20050;-57
2023/04/20 06:10:13;;;;;;;12.32;3.03;;;;;;;29.62;46.11;98077.00;4826360;29;20050;-57
2023/04/20 06:12:44;;;;;;;7.20;3.30;;;;;;;28.87;47.19;98087.63;4826294;29;20734;-58
2023/04/20 06:15:14;;;;;;;7.10;3.10;;;;;;;28.32;48.35;98079.44;4825589;29;20123;-57
2023/04/20 06:17:43;;;;;;;7.45;2.80;;;;;;;28.24;49.39;98084.88;4816045;29;20054;-54
2023/04/20 06:20:12;;;;;;;8.65;3.03;;;;;;;28.09;50.24;98080.72;4816268;29;20066;-54
2023/04/20 06:22:45;;;;;;;8.30;2.85;;;;;;;28.12;50.62;98074.66;4814353;29;20406;-51
2023/04/20 06:25:15;;;;;;;9.75;3.10;;;;;;;28.26;51.32;98074.47;4828247;29;20134;-55
2023/04/20 06:27:45;;;;;;;5.35;3.08;;;;;;;28.22;50.26;98071.59;4821252;29;20082;-56
2023/04/20 06:30:16;;;;;;;10.32;3.40;;;;;;;28.10;49.89;98071.47;4810753;29;20123;-60
2023/04/20 06:32:47;;;;;;;7.10;3.13;;;;;;;28.20;51.02;98065.66;4805198;29;20146;-60
2023/04/20 06:35:16;;;;;;;11.80;2.97;;;;;;;28.58;48.79;98065.75;4800131;29;20496;-59
2023/04/20 06:37:45;;;;;;;11.27;3.17;;;;;;;28.77;46.67;98066.19;4810466;29;20058;-59
2023/04/20 06:40:16;;;;;;;9.00;2.95;;;;;;;28.90;45.53;98058.94;4831559;29;20315;-55
2023/04/20 06:42:45;;;;;;;11.15;3.00;;;;;;;29.26;44.36;98051.03;4830312;29;20045;-52
2023/04/20 06:45:17;;;;;;;16.95;3.38;;;;;;;29.39;45.16;98041.03;4834513;29;20054;-60
2023/04/20 06:47:46;;;;;;;5.75;2.50;;;;;;;29.50;44.51;98044.16;4829716;29;20050;-61
2023/04/20 06:50:16;;;;;;;10.20;3.78;;;;;;;29.62;43.92;98045.03;4832315;29;20054;-62
2023/04/20 06:52:47;;;;;;;9.60;2.80;;;;;;;29.74;45.43;98036.91;4835796;29;20072;-60
2023/04/20 06:55:17;;;;;;;9.35;2.97;;;;;;;29.69;43.52;98030.88;4839293;29;20129;-60
2023/04/20 06:57:46;;;;;;;11.07;2.63;;;;;;;29.74;45.19;98036.13;4836042;29;20061;-60
2023/04/20 07:00:16;;;;;;;8.45;2.97;;;;;;;29.61;44.33;98027.06;4837472;29;20054;-57
2023/04/20 07:02:49;;;;;;;12.50;3.85;;;;;;;29.61;43.79;98031.75;4812335;29;20101;-61
2023/04/20 07:05:20;;;;;;;10.68;3.20;;;;;;;29.85;44.99;98023.66;4806105;29;20141;-58
2023/04/20 07:07:50;;;;;;;10.55;2.90;;;;;;;29.93;44.21;98014.63;4829017;29;20065;-53
2023/04/20 07:10:19;;;;;;;8.00;3.05;;;;;;;30.09;43.62;98021.06;4838396;29;20058;-54
2023/04/20 07:12:49;;;;;;;9.23;3.28;;;;;;;30.29;38.60;98017.47;4833153;29;20608;-59
2023/04/20 07:15:19;;;;;;;8.65;3.47;;;;;;;30.34;41.41;98009.06;4822174;29;20744;-58
2023/04/20 07:17:48;;;;;;;9.02;2.50;;;;;;;30.32;39.14;98014.06;4838610;29;20173;-60
2023/04/20 07:20:18;;;;;;;14.50;3.35;;;;;;;30.56;40.59;98015.28;4838094;29;20067;-61
2023/04/20 07:22:47;;;;;;;9.38;2.67;;;;;;;30.27;38.59;98011.53;4835022;29;20153;-58
2023/04/20 07:25:17;;;;;;;9.75;2.70;;;;;;;30.25;38.33;98002.91;4821836;29;20502;-58
2023/04/20 07:27:46;;;;;;;11.40;3.35;;;;;;;30.38;33.36;98006.44;4832651;29;20529;-58
2023/04/20 07:30:16;;;;;;;6.00;2.72;;;;;;;30.62;37.35;98006.53;4838873;29;20379;-59
2023/04/20 07:32:45;;;;;;;12.70;2.60;;;;;;;30.65;33.24;97999.56;4816827;29;20471;-60
2023/04/20 07:35:14;;;;;;;9.68;2.97;;;;;;;30.69;36.00;98000.47;4828200;29;20053;-62
2023/04/20 07:38:10;;;;;;;28.42;3.42;;;;;;;30.99;36.26;98001.03;4829044;29;20050;-68
2023/04/20 07:40:40;;;;;;;13.77;3.63;;;;;;;31.37;35.35;97995.22;4839599;29;20053;-66
2023/04/20 07:44:07;;;;;;;10.10;3.40;;;;;;;31.25;35.42;97987.81;4832129;29;20141;-59
2023/04/20 07:46:39;;;;;;;10.70;3.33;;;;;;;30.96;33.30;97982.59;4836598;29;20574;-55
2023/04/20 07:50:07;;;;;;;9.02;3.20;;;;;;;31.22;37.22;97980.31;4824117;29;20368;-60
2023/04/20 07:53:09;;;;;;;10.98;3.30;;;;;;;30.99;33.33;97976.44;4823972;29;20476;-60
2023/04/20 07:55:39;;;;;;;13.15;3.50;;;;;;;30.76;33.60;97971.41;4821714;29;20061;-61
2023/04/20 07:58:09;;;;;;;10.65;3.40;;;;;;;30.71;35.97;97963.44;4830794;29;20054;-60
2023/04/20 08:00:38;;;;;;;8.52;3.05;;;;;;;30.81;36.64;97961.38;4821582;29;20053;-58
2023/04/20 08:03:08;;;;;;;10.50;3.45;;;;;;;30.91;37.89;97953.53;4829641;29;20057;-59
2023/04/20 08:05:39;;;;;;;8.57;3.10;;;;;;;30.83;34.59;97959.94;4837526;29;20049;-59
2023/04/20 08:08:09;;;;;;;9.13;3.05;;;;;;;31.04;38.25;97957.06;4830676;29;20486;-61
2023/04/20 08:10:38;;;;;;;13.27;3.20;;;;;;;30.75;36.40;97950.72;4834021;29;20053;-61
2023/04/20 08:13:08;;;;;;;8.27;3.40;;;;;;;30.90;37.82;97951.13;4816043;29;20165;-58
2023/04/20 08:15:37;;;;;;;11.93;3.15;;;;;;;30.60;38.02;97943.19;4814424;29;20053;-60
2023/04/20 08:18:06;;;;;;;12.43;3.08;;;;;;;30.62;38.74;97935.44;4833424;29;20050;-62
2023/04/20 08:20:36;;;;;;;11.27;3.45;;;;;;;30.42;38.48;97941.78;4833726;29;20169;-62
2023/04/20 08:23:05;;;;;;;7.90;2.92;;;;;;;30.58;38.71;97939.97;4831973;29;20114;-61
2023/04/20 08:25:37;;;;;;;10.70;3.65;;;;;;;30.56;37.31;97925.88;4821217;29;20130;-61
2023/04/20 08:28:06;;;;;;;12.38;3.30;;;;;;;30.50;36.33;97929.97;4831298;29;20057;-61
2023/04/20 08:30:47;;;;;;;13.57;3.67;;;;;;;30.22;38.77;97926.28;4830326;29;20159;-60
2023/04/20 08:33:16;;;;;;;11.00;3.33;;;;;;;30.08;38.40;97914.88;4817525;29;20053;-62
2023/04/20 08:36:44;;;;;;;13.70;3.55;;;;;;;29.84;37.70;97900.00;4819602;29;20140;-63
2023/04/20 08:39:18;;;;;;;13.70;3.92;;;;;;;30.02;38.71;97905.28;4836345;29;20050;-61
2023/04/20 08:41:52;;;;;;;17.10;4.00;;;;;;;30.21;34.79;97900.09;4829937;29;20106;-61
2023/04/20 08:44:23;;;;;;;12.52;3.97;;;;;;;30.24;37.18;97897.47;4831051;29;20503;-61
2023/04/20 08:46:53;;;;;;;12.68;3.33;;;;;;;30.62;34.10;97890.91;4828644;29;20430;-60
2023/04/20 08:49:23;;;;;;;13.02;3.65;;;;;;;30.62;36.80;97885.44;4827259;29;20049;-61
2023/04/20 08:51:53;;;;;;;12.73;3.50;;;;;;;30.45;39.59;97882.94;4827120;29;20077;-62
2023/04/20 08:54:22;;;;;;;11.27;3.55;;;;;;;30.33;38.04;97873.56;4828135;29;20064;-61
2023/04/20 08:56:52;;;;;;;11.32;3.60;;;;;;;30.32;34.46;97873.91;4826674;29;20513;-62
2023/04/20 08:59:21;;;;;;;11.73;3.50;;;;;;;30.19;34.39;97864.91;4799384;29;26714;-61
2023/04/20 09:01:50;;;;;;;13.95;3.13;;;;;;;30.02;38.26;97856.94;4827201;29;20119;-61
2023/04/20 09:04:22;;;;;;;13.77;3.67;;;;;;;30.05;37.35;97850.00;4832556;29;20054;-59
2023/04/20 09:06:54;;;;;;;14.85;4.05;;;;;;;30.09;39.02;97843.53;4834013;29;20057;-61
2023/04/20 09:09:25;;;;;;;13.75;3.60;;;;;;;30.24;37.14;97842.03;4832711;29;20121;-59
2023/04/20 09:12:08;;;;;;;10.68;3.60;;;;;;;30.09;38.92;97835.34;4832907;29;20079;-60
2023/04/20 09:15:35;;;;;;;18.30;3.90;;;;;;;29.79;38.54;97818.28;4832208;29;20085;-59
2023/04/20 09:18:14;;;;;;;13.20;4.50;;;;;;;29.75;38.83;97824.78;4832739;29;20046;-60
2023/04/20 09:20:44;;;;;;;11.63;3.53;;;;;;;29.70;39.50;97814.88;4828308;29;20050;-60
2023/04/20 09:23:23;;;;;;;13.40;4.25;;;;;;;30.00;36.44;97812.78;4802396;29;20471;-61
2023/04/20 09:25:52;;;;;;;18.10;3.50;;;;;;;30.01;37.28;97802.63;4829529;29;20060;-61
2023/04/20 09:28:22;;;;;;;14.35;3.58;;;;;;;29.76;40.04;97797.16;4833858;29;20152;-61
2023/04/20 09:30:52;;;;;;;21.08;3.42;;;;;;;29.67;39.21;97798.38;4812391;29;20098;-62
2023/04/20 09:33:28;;;;;;;20.63;4.05;;;;;;;29.68;38.80;97791.78;4800424;29;20058;-55
2023/04/20 09:36:05;;;;;;;15.50;4.10;;;;;;;29.66;40.52;97783.13;4812026;29;20053;-59
2023/04/20 09:38:35;;;;;;;13.25;3.25;;;;;;;29.49;38.79;97777.88;4823990;29;20491;-59
2023/04/20 09:41:06;;;;;;;14.15;4.07;;;;;;;29.58;39.18;97773.13;4831431;29;20121;-61
2023/04/20 09:43:35;;;;;;;19.20;4.30;;;;;;;29.42;38.57;97765.59;4811332;29;20081;-58
2023/04/20 09:46:06;;;;;;;19.35;4.15;;;;;;;29.41;39.16;97765.94;4829890;29;20511;-59
2023/04/20 09:48:36;;;;;;;14.57;3.38;;;;;;;29.48;39.25;97759.91;4826026;29;20652;-58
2023/04/20 09:51:50;;;;;;;16.17;3.90;;;;;;;29.70;38.75;97763.00;4828020;29;20050;-60
2023/04/20 09:54:20;;;;;;;13.07;3.72;;;;;;;29.73;38.79;97751.44;4831459;29;20137;-61
2023/04/20 09:56:52;;;;;;;15.13;3.13;;;;;;;29.78;38.11;97750.41;4834491;29;20060;-62
2023/04/20 09:59:21;;;;;;;16.85;3.47;;;;;;;29.78;39.54;97744.94;4827758;29;20146;-59
2023/04/20 10:01:50;;;;;;;14.73;3.60;;;;;;;29.61;39.38;97742.44;4810832;29;20049;-57
2023/04/20 10:04:20;;;;;;;11.57;3.08;;;;;;;29.54;40.76;97736.72;4831884;29;20057;-58
2023/04/20 10:06:56;;;;;;;12.70;3.55;;;;;;;29.41;40.82;97733.19;4828972;29;20050;-59
2023/04/20 10:10:14;;;;;;;16.23;3.60;;;;;;;29.39;40.88;97729.97;4833289;29;20604;-59
2023/04/20 10:12:52;;;;;;;14.75;3.50;;;;;;;29.30;41.25;97716.44;4828718;29;20539;-60
2023/04/20 10:15:26;;;;;;;18.45;4.00;;;;;;;29.28;40.59;97715.16;4814865;29;20136;-60
2023/04/20 10:17:55;;;;;;;13.40;3.65;;;;;;;29.31;40.42;97698.94;4821653;29;20049;-61
2023/04/20 10:20:27;;;;;;;19.40;3.80;;;;;;;29.24;39.44;97695.97;4814611;29;20144;-61
2023/04/20 10:23:08;;;;;;;18.23;3.65;;;;;;;29.27;39.69;97692.56;4834481;29;20056;-61
2023/04/20 10:25:39;;;;;;;12.52;3.25;;;;;;;29.31;40.51;97690.75;4835159;29;20686;-62
2023/04/20 10:28:09;;;;;;;22.40;4.10;;;;;;;29.52;36.95;97679.75;4828714;29;20119;-61
2023/04/20 10:30:51;;;;;;;14.27;3.50;;;;;;;29.77;36.07;97672.38;4831624;29;20133;-60
2023/04/20 10:33:21;;;;;;;18.25;3.50;;;;;;;29.66;37.80;97668.50;4815406;29;20078;-61
2023/04/20 10:35:56;;;;;;;19.75;3.83;;;;;;;29.65;38.00;97666.91;4815159;29;20096;-60
2023/04/20 10:38:32;;;;;;;19.38;3.55;;;;;;;29.68;37.42;97661.56;4834136;29;20475;-60
2023/04/20 10:41:10;;;;;;;17.30;3.50;;;;;;;29.53;38.14;97661.44;4807702;29;20491;-62
2023/04/20 10:43:43;;;;;;;16.70;3.70;;;;;;;29.82;35.08;97659.28;4832982;29;20050;-61
2023/04/20 10:46:17;;;;;;;19.35;3.97;;;;;;;30.13;32.13;97660.63;4834422;29;20423;-60
2023/04/20 10:49:00;;;;;;;15.52;3.83;;;;;;;30.30;32.73;97665.81;4804218;29;20165;-60
2023/04/20 10:51:30;;;;;;;18.88;3.30;;;;;;;30.42;31.39;97656.75;4804541;29;20055;-62
2023/04/20 10:54:00;;;;;;;15.57;3.33;;;;;;;30.57;33.00;97658.78;4802270;29;20061;-61
2023/04/20 10:56:40;;;;;;;13.35;3.65;;;;;;;30.72;30.45;97658.81;4804936;29;20412;-63
2023/04/20 10:59:15;;;;;;;10.55;2.88;;;;;;;30.75;29.33;97655.41;4805621;29;20837;-61
2023/04/20 11:01:46;;;;;;;18.35;3.17;;;;;;;30.73;30.03;97656.88;4800686;29;20058;-60
2023/04/20 11:04:16;;;;;;;19.88;3.40;;;;;;;30.81;29.63;97652.41;4795881;29;20051;-59
2023/04/20 11:06:47;;;;;;;22.83;4.10;;;;;;;30.85;29.34;97651.34;4801990;29;20994;-60
2023/04/20 11:09:25;;;;;;;11.82;3.38;;;;;;;30.73;28.17;97635.00;4808042;29;20058;-60
2023/04/20 11:11:58;;;;;;;14.73;3.58;;;;;;;30.81;30.49;97646.94;4803237;29;20403;-61
2023/04/20 11:14:29;;;;;;;17.63;3.15;;;;;;;30.68;33.02;97654.41;4786740;29;20062;-60
2023/04/20 11:18:06;;;;;;;18.25;3.53;;;;;;;30.82;30.25;97654.78;4806454;29;20058;-61
2023/04/20 11:20:36;;;;;;;21.15;3.63;;;;;;;30.83;29.16;97650.91;4805542;29;20550;-61
2023/04/20 11:23:06;;;;;;;19.05;3.95;;;;;;;30.84;29.60;97641.56;4804760;29;20106;-60
2023/04/20 11:25:35;;;;;;;16.23;3.65;;;;;;;30.83;29.93;97645.44;4797696;29;20102;-60
2023/04/20 11:28:07;;;;;;;9.43;3.20;;;;;;;30.74;33.74;97642.88;4797597;29;20069;-61
2023/04/20 11:30:41;;;;;;;24.95;4.43;;;;;;;30.65;32.94;97638.72;4805624;29;20062;-61
2023/04/20 11:33:12;;;;;;;15.93;3.42;;;;;;;30.46;33.69;97628.44;4804668;29;20796;-61
2023/04/20 11:35:43;;;;;;;17.08;3.65;;;;;;;30.30;32.20;97631.09;4799755;29;20492;-64
2023/04/20 11:38:12;;;;;;;11.43;3.17;;;;;;;30.11;35.15;97639.09;4798182;29;20506;-61
2023/04/20 11:40:42;;;;;;;18.75;3.70;;;;;;;29.95;34.40;97638.25;4798165;29;20059;-63
2023/04/20 11:43:11;;;;;;;18.50;4.00;;;;;;;29.80;32.13;97636.97;4793830;29;20050;-60
2023/04/20 11:45:40;;;;;;;15.02;3.65;;;;;;;29.77;34.94;97634.94;4800665;29;20059;-61
2023/04/20 11:48:10;;;;;;;18.50;3.97;;;;;;;29.75;32.25;97634.47;4815376;29;20088;-61
2023/04/20 11:50:40;;;;;;;19.45;3.72;;;;;;;29.70;33.22;97637.44;4831359;29;20065;-62
2023/04/20 11:53:13;;;;;;;22.42;3.78;;;;;;;29.69;33.83;97635.06;4834327;29;20077;-62
2023/04/20 11:55:42;;;;;;;17.70;3.60;;;;;;;29.69;35.29;97637.81;4833786;29;20058;-65
2023/04/20 11:58:11;;;;;;;21.83;4.32;;;;;;;29.50;35.46;97648.50;4817157;29;20118;-68
2023/04/20 12:00:41;;;;;;;14.88;4.30;;;;;;;29.32;35.20;97647.91;4840912;29;20533;-63
2023/04/20 12:03:11;;;;;;;13.40;3.08;;;;;;;29.27;36.62;97656.28;4817936;29;20057;-60
2023/04/20 12:05:42;;;;;;;11.05;3.28;;;;;;;29.15;36.65;97657.09;4834230;29;20069;-61
2023/04/20 12:08:12;;;;;;;17.40;4.75;;;;;;;29.07;37.48;97665.38;4829593;29;20072;-64